createdAt,value
2023-05-12T00:00:06.243Z,96461.19
2023-05-12T00:02:32.924Z,96453.34
2023-05-12T00:04:59.903Z,96272.16
2023-05-12T00:07:26.796Z,96525.03
2023-05-12T00:09:53.406Z,96294.69
2023-05-12T00:12:20.127Z,96562.94
2023-05-12T00:14:46.729Z,96450.69
2023-05-12T00:17:13.962Z,96526.19
2023-05-12T00:19:50.106Z,96476.53
2023-05-12T00:22:17.279Z,96454.97
2023-05-12T00:24:44.441Z,96536.03
2023-05-12T00:27:11.095Z,96540.63
2023-05-12T00:29:37.784Z,96553.28
2023-05-12T00:32:04.630Z,96554.53
2023-05-12T00:34:31.525Z,96439.09
2023-05-12T00:36:58.172Z,96521.25
2023-05-12T00:39:24.813Z,96523.69
2023-05-12T00:41:57.856Z,96515.81
2023-05-12T00:44:24.550Z,96560.09
2023-05-12T00:46:51.261Z,96496.00
2023-05-12T00:49:18.091Z,96531.03
2023-05-12T00:51:44.733Z,96500.19
2023-05-12T00:54:11.344Z,96515.41
2023-05-12T00:56:39.536Z,96387.63
2023-05-12T00:59:06.626Z,96249.00
2023-05-12T01:01:33.953Z,96281.84
2023-05-12T01:04:00.948Z,96502.66
2023-05-12T01:06:49.528Z,96543.78
2023-05-12T01:09:16.203Z,96512.66
2023-05-12T01:11:42.853Z,96540.94
2023-05-12T01:14:09.501Z,96494.47
2023-05-12T01:16:43.266Z,96529.50
2023-05-12T01:19:12.844Z,96454.78
2023-05-12T01:21:39.568Z,96487.25
2023-05-12T01:24:07.815Z,96494.72
2023-05-12T01:26:34.593Z,96488.63
2023-05-12T01:29:01.760Z,96556.97
2023-05-12T01:31:29.351Z,96538.50
2023-05-12T01:33:55.975Z,96501.53
2023-05-12T01:36:22.564Z,96505.19
2023-05-12T01:38:49.188Z,96409.56
2023-05-12T01:41:16.574Z,96467.69
2023-05-12T01:43:43.178Z,96464.41
2023-05-12T01:46:11.001Z,96465.88
2023-05-12T01:48:37.890Z,96566.00
2023-05-12T01:54:23.784Z,96539.03
2023-05-12T01:56:50.383Z,96596.44
2023-05-12T01:59:17.001Z,96564.72
2023-05-12T02:01:43.793Z,96510.22
2023-05-12T02:04:10.647Z,96558.03
2023-05-12T02:06:37.393Z,96316.22
2023-05-12T02:09:04.248Z,96564.81
2023-05-12T02:11:31.196Z,96423.13
2023-05-12T02:13:58.693Z,96388.38
2023-05-12T02:16:25.388Z,96545.81
2023-05-12T02:18:52.107Z,96488.59
2023-05-12T02:21:18.948Z,96563.25
2023-05-12T02:23:45.581Z,96607.69
2023-05-12T02:26:12.209Z,96268.47
2023-05-12T02:28:38.922Z,96585.25
2023-05-12T02:31:05.605Z,96514.78
2023-05-12T02:33:32.388Z,96580.19
2023-05-12T02:35:59.007Z,96509.78
2023-05-12T02:38:26.096Z,96568.22
2023-05-12T02:40:52.790Z,96483.75
2023-05-12T02:43:19.401Z,96528.72
2023-05-12T02:45:46.057Z,96566.16
2023-05-12T02:48:12.819Z,96600.31
2023-05-12T02:50:39.475Z,96469.59
2023-05-12T02:53:06.190Z,96597.38
2023-05-12T02:55:32.850Z,96571.25
2023-05-12T02:57:59.455Z,96405.03
2023-05-12T03:00:26.188Z,96477.94
2023-05-12T03:02:52.826Z,96585.38
2023-05-12T03:05:19.495Z,96332.47
2023-05-12T03:07:48.654Z,96509.31
2023-05-12T03:10:16.598Z,96443.94
2023-05-12T03:12:43.209Z,96456.81
2023-05-12T03:15:10.241Z,96445.81
2023-05-12T03:17:36.921Z,96483.91
2023-05-12T03:20:04.559Z,96545.84
2023-05-12T03:22:31.249Z,96602.91
2023-05-12T03:24:57.860Z,96489.06
2023-05-12T03:27:24.472Z,96524.97
2023-05-12T03:29:51.233Z,96519.88
2023-05-12T03:32:18.064Z,96582.44
2023-05-12T03:34:44.799Z,96220.97
2023-05-12T03:37:11.685Z,96533.41
2023-05-12T03:39:38.862Z,96517.38
2023-05-12T03:42:05.894Z,96563.63
2023-05-12T03:44:32.544Z,96398.84
2023-05-12T03:46:59.253Z,96588.66
2023-05-12T03:49:26.184Z,96526.97
2023-05-12T03:51:52.825Z,96606.13
2023-05-12T03:54:19.461Z,96547.66
2023-05-12T03:56:46.067Z,96603.66
2023-05-12T03:59:13.124Z,96558.94
2023-05-12T04:01:39.803Z,96582.63
2023-05-12T04:04:06.427Z,96555.88
2023-05-12T04:06:33.164Z,96520.53
2023-05-12T04:08:59.750Z,96534.53
2023-05-12T04:11:26.346Z,96562.53
2023-05-12T04:13:53.028Z,96551.16
2023-05-12T04:16:19.823Z,96555.34
2023-05-12T04:18:46.642Z,96580.91
2023-05-12T04:21:13.373Z,96614.19
2023-05-12T04:23:40.476Z,96494.50
2023-05-12T04:26:07.331Z,96632.53
2023-05-12T04:28:34.023Z,96559.94
2023-05-12T04:31:04.622Z,96626.88
2023-05-12T04:33:31.421Z,96563.94
2023-05-12T04:35:58.313Z,96355.97
2023-05-12T04:38:24.986Z,96583.75
2023-05-12T04:40:51.602Z,96590.44
2023-05-12T04:45:47.990Z,96457.56
2023-05-12T04:48:14.695Z,96591.97
2023-05-12T04:50:41.491Z,96589.59
2023-05-12T04:53:08.598Z,96579.94
2023-05-12T04:55:36.401Z,96550.44
2023-05-12T04:58:03.041Z,96531.16
2023-05-12T05:00:29.664Z,96589.88
2023-05-12T05:02:56.426Z,96647.47
2023-05-12T05:05:23.268Z,96598.75
2023-05-12T05:07:50.047Z,96615.06
2023-05-12T05:10:16.773Z,96460.34
2023-05-12T05:12:43.416Z,96616.88
2023-05-12T05:15:11.598Z,96600.13
2023-05-12T05:17:38.402Z,96579.59
2023-05-12T05:20:11.394Z,96540.88
2023-05-12T05:22:39.574Z,96579.94
2023-05-12T05:25:06.978Z,96599.28
2023-05-12T05:27:33.563Z,96497.28
2023-05-12T05:30:00.229Z,96664.41
2023-05-12T05:32:27.111Z,96588.59
2023-05-12T05:34:53.708Z,96611.59
2023-05-12T05:37:20.402Z,96616.00
2023-05-12T05:39:47.040Z,96597.72
2023-05-12T05:42:13.872Z,96626.34
2023-05-12T05:44:40.674Z,96644.56
2023-05-12T05:47:07.438Z,96640.56
2023-05-12T05:49:34.070Z,96639.91
2023-05-12T05:52:00.798Z,96563.38
2023-05-12T05:54:27.464Z,96643.13
2023-05-12T05:56:54.123Z,96598.75
2023-05-12T05:59:20.708Z,96623.75
2023-05-12T06:01:47.380Z,96582.00
2023-05-12T06:04:14.032Z,96586.66
2023-05-12T06:06:40.756Z,96621.09
2023-05-12T06:09:09.029Z,96534.63
2023-05-12T06:11:35.669Z,96623.47
2023-05-12T06:14:02.288Z,96465.53
2023-05-12T06:16:29.431Z,96600.94
2023-05-12T06:18:56.192Z,96615.00
2023-05-12T06:21:22.917Z,96589.31
2023-05-12T06:23:51.559Z,96576.78
2023-05-12T06:26:18.272Z,96636.47
2023-05-12T06:28:44.996Z,96633.06
2023-05-12T06:31:11.653Z,96637.38
2023-05-12T06:33:38.300Z,96639.34
2023-05-12T06:36:05.268Z,96571.31
2023-05-12T06:38:31.890Z,96583.59
2023-05-12T06:40:58.602Z,96617.50
2023-05-12T06:43:25.269Z,96632.19
2023-05-12T06:45:51.962Z,96642.56
2023-05-12T06:48:18.555Z,96601.88
2023-05-12T06:50:45.941Z,96630.94
2023-05-12T06:53:12.617Z,96572.50
2023-05-12T06:55:39.221Z,96552.91
2023-05-12T06:58:06.104Z,96553.03
2023-05-12T07:00:32.744Z,96628.69
2023-05-12T07:03:12.528Z,96606.50
2023-05-12T07:05:40.000Z,96641.16
2023-05-12T07:08:06.641Z,96625.72
2023-05-12T07:10:35.268Z,96632.72
2023-05-12T07:13:02.011Z,96592.31
2023-05-12T07:15:30.081Z,96608.31
2023-05-12T07:17:58.637Z,96629.59
2023-05-12T07:20:25.394Z,96613.00
2023-05-12T07:22:54.952Z,96595.72
2023-05-12T07:25:22.295Z,96553.59
2023-05-12T07:27:55.328Z,96617.72
2023-05-12T07:30:22.587Z,96612.00
2023-05-12T07:32:49.461Z,96303.56
2023-05-12T07:35:16.148Z,96640.44
2023-05-12T07:37:43.025Z,96574.34
2023-05-12T07:40:09.743Z,96571.78
2023-05-12T07:42:36.437Z,96561.84
2023-05-12T07:45:03.422Z,96560.19
2023-05-12T07:47:30.112Z,96314.53
2023-05-12T07:49:56.905Z,96586.38
2023-05-12T07:52:24.466Z,96579.78
2023-05-12T07:54:51.121Z,96639.66
2023-05-12T07:57:17.806Z,96584.75
2023-05-12T07:59:44.412Z,96620.28
2023-05-12T08:02:11.088Z,96545.47
2023-05-12T08:04:38.205Z,96651.00
2023-05-12T08:07:04.902Z,96596.44
2023-05-12T08:09:31.585Z,96642.13
2023-05-12T08:11:58.242Z,96334.16
2023-05-12T08:14:26.360Z,96628.50
2023-05-12T08:16:53.108Z,96581.31
2023-05-12T08:19:19.815Z,96569.00
2023-05-12T08:21:46.423Z,96544.16
2023-05-12T08:24:13.072Z,96590.66
2023-05-12T08:26:39.714Z,96576.34
2023-05-12T08:29:06.921Z,96382.44
2023-05-12T08:31:33.646Z,96576.22
2023-05-12T08:34:09.774Z,96583.97
2023-05-12T08:36:40.545Z,96563.34
2023-05-12T08:39:08.392Z,96593.81
2023-05-12T08:41:52.401Z,96641.81
2023-05-12T08:44:19.174Z,96577.34
2023-05-12T08:46:46.790Z,96571.00
2023-05-12T08:49:16.546Z,96388.53
2023-05-12T08:51:48.108Z,96586.28
2023-05-12T08:54:21.361Z,96577.69
2023-05-12T08:59:18.074Z,96443.75
2023-05-12T09:01:47.320Z,96527.03
2023-05-12T09:04:17.565Z,96608.66
2023-05-12T09:06:44.422Z,96618.16
2023-05-12T09:09:12.295Z,96568.78
2023-05-12T09:11:38.902Z,96645.28
2023-05-12T09:14:08.829Z,96598.16
2023-05-12T09:17:00.689Z,96648.31
2023-05-12T09:19:27.420Z,96600.25
2023-05-12T09:21:54.218Z,96633.56
2023-05-12T09:24:22.332Z,96485.88
2023-05-12T09:26:49.557Z,96572.31
2023-05-12T09:29:27.796Z,96614.31
2023-05-12T09:31:58.797Z,96492.75
2023-05-12T09:34:30.700Z,96611.97
2023-05-12T09:36:58.652Z,96617.84
2023-05-12T09:39:25.760Z,96322.78
2023-05-12T09:41:55.084Z,96394.78
2023-05-12T09:44:22.088Z,96621.13
2023-05-12T09:46:48.700Z,96601.84
2023-05-12T09:49:22.270Z,96573.97
2023-05-12T09:52:01.558Z,96589.03
2023-05-12T09:54:29.038Z,96555.19
2023-05-12T09:57:02.746Z,96599.84
2023-05-12T09:59:36.409Z,96601.09
2023-05-12T10:02:05.504Z,96612.75
2023-05-12T10:04:40.237Z,96580.78
2023-05-12T10:07:08.495Z,96570.00
2023-05-12T10:09:35.303Z,96555.97
2023-05-12T10:12:03.154Z,96358.09
2023-05-12T10:14:29.851Z,96610.25
2023-05-12T10:16:56.688Z,96620.69
2023-05-12T10:19:23.340Z,96500.31
2023-05-12T10:21:49.951Z,96585.28
2023-05-12T10:24:19.432Z,96619.50
2023-05-12T10:26:46.036Z,96589.13
2023-05-12T10:29:12.867Z,96480.50
2023-05-12T10:31:39.740Z,96560.13
2023-05-12T10:34:06.947Z,96584.44
2023-05-12T10:36:46.359Z,96513.22
2023-05-12T10:39:15.520Z,96367.56
2023-05-12T10:41:42.823Z,96559.09
2023-05-12T10:44:12.316Z,96570.53
2023-05-12T10:46:38.953Z,96557.13
2023-05-12T10:49:12.474Z,96559.75
2023-05-12T10:51:45.227Z,96602.66
2023-05-12T10:54:18.457Z,96558.38
2023-05-12T10:56:45.505Z,96611.59
2023-05-12T10:59:24.552Z,96517.81
2023-05-12T11:02:02.300Z,96609.44
2023-05-12T11:04:48.228Z,96568.00
2023-05-12T11:07:16.737Z,96542.06
2023-05-12T11:09:56.508Z,96624.34
2023-05-12T11:12:24.034Z,96529.31
2023-05-12T11:14:50.630Z,96611.53
2023-05-12T11:17:17.303Z,96521.50
2023-05-12T11:19:48.430Z,96507.41
2023-05-12T11:22:17.851Z,96543.97
2023-05-12T11:24:44.469Z,96594.06
2023-05-12T11:27:18.881Z,96541.16
2023-05-12T11:29:51.784Z,96593.25
2023-05-12T11:32:18.431Z,96322.63
2023-05-12T11:34:45.471Z,96593.84
2023-05-12T11:37:12.164Z,96568.59
2023-05-12T11:39:38.790Z,96601.75
2023-05-12T11:42:12.716Z,96624.16
2023-05-12T11:44:50.103Z,96585.56
2023-05-12T11:47:17.385Z,96495.81
2023-05-12T11:49:51.772Z,96632.22
2023-05-12T11:52:19.753Z,96596.44
2023-05-12T11:54:53.510Z,96605.88
2023-05-12T11:57:33.515Z,96566.81
2023-05-12T12:00:09.876Z,96551.22
2023-05-12T12:02:43.380Z,96567.59
2023-05-12T12:05:17.876Z,96487.25
2023-05-12T12:07:44.774Z,96644.56
2023-05-12T12:10:12.912Z,96329.25
2023-05-12T12:12:40.438Z,96531.97
2023-05-12T12:15:07.724Z,96564.56
2023-05-12T12:17:34.684Z,96529.41
2023-05-12T12:20:01.662Z,96419.44
2023-05-12T12:22:32.607Z,96529.66
2023-05-12T12:24:59.214Z,96564.03
2023-05-12T12:27:26.035Z,96622.91
2023-05-12T12:29:52.647Z,96611.22
2023-05-12T12:32:19.686Z,96582.72
2023-05-12T12:34:46.478Z,96494.00
2023-05-12T12:37:13.401Z,96490.81
2023-05-12T12:39:40.043Z,96622.16
2023-05-12T12:42:06.704Z,96525.38
2023-05-12T12:44:33.352Z,96608.00
2023-05-12T12:46:59.980Z,96616.28
2023-05-12T12:49:26.970Z,96524.78
2023-05-12T12:51:53.597Z,96522.94
2023-05-12T12:54:20.233Z,96637.91
2023-05-12T12:56:47.230Z,96570.41
2023-05-12T12:59:13.965Z,96557.81
2023-05-12T13:01:40.746Z,96387.44
2023-05-12T13:04:07.426Z,96604.84
2023-05-12T13:06:34.764Z,96514.66
2023-05-12T13:09:01.799Z,96638.53
2023-05-12T13:11:28.900Z,96487.03
2023-05-12T13:13:55.735Z,96555.16
2023-05-12T13:16:22.486Z,96517.59
2023-05-12T13:18:49.406Z,96144.22
2023-05-12T13:21:16.253Z,96511.34
2023-05-12T13:23:42.977Z,96586.56
2023-05-12T13:26:09.624Z,96643.00
2023-05-12T13:28:36.324Z,96607.28
2023-05-12T13:31:03.036Z,96545.06
2023-05-12T13:33:29.841Z,96579.47
2023-05-12T13:35:57.081Z,96618.50
2023-05-12T13:38:23.727Z,96545.38
2023-05-12T13:40:51.128Z,96493.63
2023-05-12T13:43:18.457Z,96616.47
2023-05-12T13:45:45.124Z,96514.09
2023-05-12T13:48:11.850Z,96539.69
2023-05-12T13:50:38.511Z,96540.50
2023-05-12T13:53:05.128Z,96535.66
2023-05-12T13:55:33.978Z,96563.69
2023-05-12T13:58:00.688Z,96566.94
2023-05-12T14:00:29.833Z,96576.81
2023-05-12T14:02:58.094Z,96593.16
2023-05-12T14:05:24.966Z,96492.38
2023-05-12T14:07:51.812Z,96414.94
2023-05-12T14:10:18.875Z,96154.81
2023-05-12T14:12:45.724Z,96569.56
2023-05-12T14:17:46.402Z,96513.84
2023-05-12T14:20:13.205Z,96505.16
2023-05-12T14:22:39.908Z,96456.75
2023-05-12T14:25:06.813Z,96513.88
2023-05-12T14:27:33.446Z,96345.84
2023-05-12T14:30:00.208Z,96600.13
2023-05-12T14:32:27.025Z,96462.09
2023-05-12T14:34:53.687Z,96610.81
2023-05-12T14:37:20.311Z,96553.97
2023-05-12T14:39:46.955Z,96612.72
2023-05-12T14:42:13.539Z,96565.16
2023-05-12T14:44:40.255Z,96595.78
2023-05-12T14:47:09.166Z,96631.94
2023-05-12T14:49:36.084Z,96555.78
2023-05-12T14:52:03.002Z,96645.78
2023-05-12T14:54:29.713Z,96361.53
2023-05-12T14:56:56.783Z,96398.06
2023-05-12T14:59:23.612Z,96302.97
2023-05-12T15:01:50.573Z,96509.13
2023-05-12T15:04:17.486Z,96547.00
2023-05-12T15:06:44.171Z,96418.97
2023-05-12T15:09:10.971Z,96417.53
2023-05-12T15:11:37.816Z,96620.41
2023-05-12T15:14:04.944Z,96641.34
2023-05-12T15:16:32.910Z,96604.72
2023-05-12T15:18:59.894Z,96634.13
2023-05-12T15:21:26.544Z,96548.78
2023-05-12T15:23:53.190Z,96619.72
2023-05-12T15:28:49.409Z,96604.44
2023-05-12T15:31:16.120Z,96635.50
2023-05-12T15:33:42.809Z,96659.44
2023-05-12T15:36:11.429Z,96658.75
2023-05-12T15:38:38.159Z,96603.88
2023-05-12T15:41:04.868Z,96527.06
2023-05-12T15:43:31.501Z,96674.44
2023-05-12T15:45:58.349Z,96575.72
2023-05-12T15:48:24.990Z,96427.69
2023-05-12T15:50:51.613Z,96621.47
2023-05-12T15:53:18.245Z,96667.53
2023-05-12T15:55:45.070Z,96603.25
2023-05-12T15:58:11.879Z,96602.56
2023-05-12T16:00:38.774Z,96656.41
2023-05-12T16:03:05.685Z,96528.09
2023-05-12T16:05:34.122Z,96630.28
2023-05-12T16:08:00.712Z,96682.44
2023-05-12T16:10:27.613Z,96611.56
2023-05-12T16:12:54.231Z,96623.09
2023-05-12T16:15:21.012Z,96590.59
2023-05-12T16:17:47.950Z,96652.78
2023-05-12T16:20:15.178Z,96631.84
2023-05-12T16:22:42.201Z,96467.44
2023-05-12T16:25:09.206Z,96639.69
2023-05-12T16:27:36.776Z,96661.78
2023-05-12T16:30:03.909Z,96668.63
2023-05-12T16:32:30.557Z,96696.56
2023-05-12T16:34:57.578Z,96478.22
2023-05-12T16:37:24.333Z,96413.69
2023-05-12T16:39:50.937Z,96465.78
2023-05-12T16:42:17.603Z,96728.59
2023-05-12T16:44:44.251Z,96706.88
2023-05-12T16:47:11.070Z,96511.28
2023-05-12T16:49:37.687Z,96698.03
2023-05-12T16:52:04.474Z,96759.31
2023-05-12T16:54:31.882Z,96731.69
2023-05-12T16:56:59.153Z,96670.44
2023-05-12T16:59:25.883Z,96711.88
2023-05-12T17:01:52.585Z,96598.56
2023-05-12T17:04:19.262Z,96544.28
2023-05-12T17:06:46.158Z,96734.97
2023-05-12T17:09:13.158Z,96712.88
2023-05-12T17:11:39.837Z,96646.94
2023-05-12T17:14:06.707Z,96655.88
2023-05-12T17:16:33.390Z,96704.72
2023-05-12T17:21:29.580Z,96720.44
2023-05-12T17:23:57.240Z,96680.63
2023-05-12T17:26:23.940Z,96596.16
2023-05-12T17:28:50.571Z,96726.81
2023-05-12T17:31:17.307Z,96700.53
2023-05-12T17:33:43.987Z,96724.94
2023-05-12T17:36:13.380Z,96685.25
2023-05-12T17:38:40.400Z,96779.94
2023-05-12T17:41:07.026Z,96747.38
2023-05-12T17:43:33.714Z,96732.59
2023-05-12T17:46:00.611Z,96810.88
2023-05-12T17:48:27.786Z,96782.22
2023-05-12T17:51:00.316Z,96707.59
2023-05-12T17:53:27.003Z,96784.69
2023-05-12T17:55:54.384Z,96820.00
2023-05-12T17:58:21.780Z,96768.75
2023-05-12T18:00:48.628Z,96780.81
2023-05-12T18:03:15.982Z,96794.66
2023-05-12T18:05:43.413Z,96704.69
2023-05-12T18:08:10.048Z,96760.97
2023-05-12T18:10:36.932Z,96733.31
2023-05-12T18:13:03.708Z,96797.91
2023-05-12T18:15:30.733Z,96762.63
2023-05-12T18:18:01.318Z,96713.31
2023-05-12T18:20:28.278Z,96737.41
2023-05-12T18:22:54.921Z,96566.28
2023-05-12T18:25:21.971Z,96837.78
2023-05-12T18:27:48.955Z,96793.69
2023-05-12T18:30:15.741Z,96703.88
2023-05-12T18:32:42.510Z,96719.97
2023-05-12T18:35:09.471Z,96541.63
2023-05-12T18:37:36.106Z,96730.50
2023-05-12T18:40:02.785Z,96819.88
2023-05-12T18:42:29.446Z,96786.31
2023-05-12T18:44:56.139Z,96857.97
2023-05-12T18:47:22.806Z,96795.91
2023-05-12T18:49:49.848Z,96871.97
2023-05-12T18:52:16.545Z,96824.25
2023-05-12T18:54:44.217Z,96644.03
2023-05-12T18:57:11.376Z,96742.19
2023-05-12T18:59:38.483Z,96784.31
2023-05-12T19:02:05.343Z,96811.53
2023-05-12T19:04:32.080Z,96703.06
2023-05-12T19:06:58.711Z,96787.72
2023-05-12T19:09:25.781Z,96860.66
2023-05-12T19:11:52.428Z,96829.72
2023-05-12T19:14:20.242Z,96865.88
2023-05-12T19:16:47.053Z,96886.91
2023-05-12T19:19:14.079Z,96775.59
2023-05-12T19:21:40.844Z,96863.22
2023-05-12T19:24:08.503Z,96822.31
2023-05-12T19:26:35.136Z,96819.88
2023-05-12T19:29:02.122Z,96870.38
2023-05-12T19:31:28.834Z,96638.66
2023-05-12T19:33:55.561Z,96606.19
2023-05-12T19:36:22.205Z,96838.38
2023-05-12T19:38:48.827Z,96852.22
2023-05-12T19:41:15.550Z,96582.34
2023-05-12T19:43:42.185Z,96613.28
2023-05-12T19:46:08.909Z,96807.34
2023-05-12T19:48:35.580Z,96874.16
2023-05-12T19:51:02.299Z,96874.50
2023-05-12T19:53:29.507Z,96883.94
2023-05-12T19:55:56.793Z,96804.81
2023-05-12T19:58:23.508Z,96907.97
2023-05-12T20:00:50.423Z,96888.00
2023-05-12T20:03:17.216Z,96919.97
2023-05-12T20:05:44.315Z,96908.66
2023-05-12T20:08:11.436Z,96934.94
2023-05-12T20:10:38.105Z,96863.34
2023-05-12T20:13:04.796Z,96748.31
2023-05-12T20:15:31.921Z,96568.34
2023-05-12T20:17:58.885Z,96908.97
2023-05-12T20:20:25.566Z,96868.06
2023-05-12T20:22:52.353Z,96859.44
2023-05-12T20:25:19.849Z,96799.56
2023-05-12T20:27:46.884Z,96893.53
2023-05-12T20:30:13.820Z,96818.03
2023-05-12T20:32:40.711Z,96879.97
2023-05-12T20:35:07.723Z,96923.13
2023-05-12T20:37:34.467Z,96600.31
2023-05-12T20:40:01.285Z,96836.22
2023-05-12T20:42:27.920Z,96909.50
2023-05-12T20:44:55.325Z,96896.94
2023-05-12T20:47:22.040Z,96830.63
2023-05-12T20:49:48.857Z,96840.53
2023-05-12T20:52:15.571Z,96841.91
2023-05-12T20:54:42.216Z,96867.25
2023-05-12T20:57:10.349Z,96816.72
2023-05-12T20:59:36.966Z,96903.44
2023-05-12T21:02:03.753Z,96864.44
2023-05-12T21:04:30.379Z,96839.53
2023-05-12T21:06:57.571Z,96899.53
2023-05-12T21:09:24.281Z,96918.69
2023-05-12T21:11:51.010Z,96764.06
2023-05-12T21:14:17.729Z,96840.44
2023-05-12T21:16:44.439Z,96844.94
2023-05-12T21:19:11.217Z,96750.47
2023-05-12T21:21:37.998Z,96885.22
2023-05-12T21:24:05.134Z,96879.81
2023-05-12T21:26:32.115Z,96874.81
2023-05-12T21:29:02.814Z,96842.56
2023-05-12T21:31:30.171Z,96883.75
2023-05-12T21:33:56.832Z,96842.28
2023-05-12T21:36:23.457Z,96870.38
2023-05-12T21:38:50.194Z,96856.66
2023-05-12T21:41:16.816Z,96916.00
2023-05-12T21:43:43.416Z,96853.31
2023-05-12T21:46:10.097Z,96859.78
2023-05-12T21:48:36.794Z,96742.91
2023-05-12T21:51:03.548Z,96927.28
2023-05-12T21:53:30.490Z,96927.56
2023-05-12T21:55:57.725Z,96552.69
2023-05-12T21:58:24.667Z,96809.97
2023-05-12T22:00:51.645Z,96782.41
2023-05-12T22:03:20.435Z,96869.69
2023-05-12T22:05:47.252Z,96926.47
2023-05-12T22:08:14.102Z,96913.75
2023-05-12T22:10:40.781Z,96609.84
2023-05-12T22:13:07.485Z,96669.97
2023-05-12T22:15:34.550Z,96869.69
2023-05-12T22:18:01.381Z,96881.81
2023-05-12T22:20:28.223Z,96772.91
2023-05-12T22:22:54.893Z,96852.25
2023-05-12T22:25:21.509Z,96782.22
2023-05-12T22:27:48.170Z,96837.31
2023-05-12T22:30:14.855Z,96827.22
2023-05-12T22:32:41.450Z,96852.25
2023-05-12T22:35:08.750Z,96894.16
2023-05-12T22:37:35.486Z,96819.06
2023-05-12T22:40:02.490Z,96843.03
2023-05-12T22:42:29.113Z,96695.81
2023-05-12T22:44:57.434Z,96792.34
2023-05-12T22:47:24.184Z,96788.94
2023-05-12T22:49:51.061Z,96844.56
2023-05-12T22:52:17.662Z,96897.19
2023-05-12T22:54:44.328Z,96840.72
2023-05-12T22:57:11.122Z,96860.13
2023-05-12T23:00:14.329Z,96918.63
2023-05-12T23:02:41.012Z,96810.69
2023-05-12T23:05:08.048Z,96833.00
2023-05-12T23:07:34.717Z,96914.25
2023-05-12T23:10:01.350Z,96925.00
2023-05-12T23:12:28.255Z,96804.16
2023-05-12T23:14:55.000Z,96892.00
2023-05-12T23:17:21.777Z,96860.75
2023-05-12T23:19:48.450Z,96862.66
2023-05-12T23:22:15.134Z,96903.19
2023-05-12T23:24:41.773Z,96832.69
2023-05-12T23:27:08.474Z,96867.00
2023-05-12T23:29:35.198Z,96860.06
2023-05-12T23:32:02.472Z,96829.72
2023-05-12T23:34:29.187Z,96828.47
2023-05-12T23:36:55.881Z,96818.09
2023-05-12T23:39:22.511Z,96825.31
2023-05-12T23:41:49.838Z,96831.84
2023-05-12T23:44:16.590Z,96751.19
2023-05-12T23:46:43.352Z,96869.63
2023-05-12T23:49:10.201Z,96912.63
2023-05-12T23:51:36.872Z,96816.94
2023-05-12T23:54:03.527Z,96650.38
2023-05-12T23:56:30.151Z,96774.09
2023-05-12T23:58:56.754Z,96773.44
